<?xml version="1.0" encoding="UTF-8" standalone="no" ?>
<gpx xmlns="http://www.topografix.com/GPX/1/1" xmlns:xsi="http://www.w3.org/2001/XMLSchema-instance" xsi:schemaLocation="http://www.topografix.com/GPX/1/1 http://www.topografix.com/GPX/1/1/gpx.xsd" version="1.1" creator="VisuGPX - https://www.visugpx.com">
  <metadata>
    <name>Circuit du 18-04-2012</name>
    <desc><![CDATA[Circuit du 18-04-2012]]></desc>
  </metadata>
  <wpt lat="45.38371" lon="3.75154">
    <ele>663.79998779297</ele>
    <name><![CDATA[Start]]></name>
  </wpt>
  <wpt lat="45.38418" lon="3.7526">
    <ele>664.09997558594</ele>
    <name><![CDATA[End]]></name>
  </wpt>
  <trk>
    <name><![CDATA[Circuit du 18-04-2012_1]]></name>
    <trkseg>
      <trkpt lat="45.38371" lon="3.75154">
        <ele>663.79998779297</ele>
        <time>2012-04-18T16:35:32Z</time>
      </trkpt>
      <trkpt lat="45.38369" lon="3.75147">
        <ele>662.70001220703</ele>
        <time>2012-04-18T16:35:35Z</time>
      </trkpt>
      <trkpt lat="45.38368" lon="3.75139">
        <ele>662.20001220703</ele>
        <time>2012-04-18T16:35:38Z</time>
      </trkpt>
      <trkpt lat="45.38366" lon="3.75131">
        <ele>662.29998779297</ele>
        <time>2012-04-18T16:35:40Z</time>
      </trkpt>
      <trkpt lat="45.38364" lon="3.75125">
        <ele>661.79998779297</ele>
        <time>2012-04-18T16:35:42Z</time>
      </trkpt>
      <trkpt lat="45.38363" lon="3.75119">
        <ele>662.20001220703</ele>
        <time>2012-04-18T16:35:44Z</time>
      </trkpt>
      <trkpt lat="45.38364" lon="3.75108">
        <ele>663.59997558594</ele>
        <time>2012-04-18T16:35:47Z</time>
      </trkpt>
      <trkpt lat="45.38366" lon="3.75102">
        <ele>661.5</ele>
        <time>2012-04-18T16:35:50Z</time>
      </trkpt>
      <trkpt lat="45.38385" lon="3.75097">
        <ele>661.70001220703</ele>
        <time>2012-04-18T16:36:02Z</time>
      </trkpt>
      <trkpt lat="45.38387" lon="3.75099">
        <ele>661.49444580078</ele>
        <time>2012-04-18T16:36:03Z</time>
      </trkpt>
      <trkpt lat="45.38397" lon="3.75101">
        <ele>663.79998779297</ele>
        <time>2012-04-18T16:36:07Z</time>
      </trkpt>
      <trkpt lat="45.38409" lon="3.75103">
        <ele>659.59997558594</ele>
        <time>2012-04-18T16:36:12Z</time>
      </trkpt>
      <trkpt lat="45.38413" lon="3.75108">
        <ele>659.40002441406</ele>
        <time>2012-04-18T16:36:14Z</time>
      </trkpt>
      <trkpt lat="45.38417" lon="3.75112">
        <ele>656.70001220703</ele>
        <time>2012-04-18T16:36:17Z</time>
      </trkpt>
      <trkpt lat="45.38423" lon="3.75113">
        <ele>657.5</ele>
        <time>2012-04-18T16:36:19Z</time>
      </trkpt>
      <trkpt lat="45.38429" lon="3.75111">
        <ele>654.29998779297</ele>
        <time>2012-04-18T16:36:21Z</time>
      </trkpt>
      <trkpt lat="45.38448" lon="3.75125">
        <ele>655.70001220703</ele>
        <time>2012-04-18T16:36:29Z</time>
      </trkpt>
      <trkpt lat="45.38451" lon="3.75131">
        <ele>656.70001220703</ele>
        <time>2012-04-18T16:36:33Z</time>
      </trkpt>
      <trkpt lat="45.38456" lon="3.75132">
        <ele>656.70001220703</ele>
        <time>2012-04-18T16:36:36Z</time>
      </trkpt>
      <trkpt lat="45.38461" lon="3.75133">
        <ele>657.5</ele>
        <time>2012-04-18T16:36:39Z</time>
      </trkpt>
      <trkpt lat="45.38465" lon="3.75133">
        <ele>657.59997558594</ele>
        <time>2012-04-18T16:36:41Z</time>
      </trkpt>
      <trkpt lat="45.38473" lon="3.75128">
        <ele>660.5</ele>
        <time>2012-04-18T16:36:49Z</time>
      </trkpt>
      <trkpt lat="45.38483" lon="3.75126">
        <ele>660.5</ele>
        <time>2012-04-18T16:36:54Z</time>
      </trkpt>
      <trkpt lat="45.38489" lon="3.75125">
        <ele>660.20001220703</ele>
        <time>2012-04-18T16:36:56Z</time>
      </trkpt>
      <trkpt lat="45.38494" lon="3.75127">
        <ele>661</ele>
        <time>2012-04-18T16:36:59Z</time>
      </trkpt>
      <trkpt lat="45.385" lon="3.75126">
        <ele>659.09997558594</ele>
        <time>2012-04-18T16:37:02Z</time>
      </trkpt>
      <trkpt lat="45.38506" lon="3.75126">
        <ele>658.5</ele>
        <time>2012-04-18T16:37:04Z</time>
      </trkpt>
      <trkpt lat="45.38529" lon="3.75118">
        <ele>658.59997558594</ele>
        <time>2012-04-18T16:37:12Z</time>
      </trkpt>
      <trkpt lat="45.38534" lon="3.75115">
        <ele>656.79998779297</ele>
        <time>2012-04-18T16:37:13Z</time>
      </trkpt>
      <trkpt lat="45.38538" lon="3.75112">
        <ele>656</ele>
        <time>2012-04-18T16:37:14Z</time>
      </trkpt>
      <trkpt lat="45.38543" lon="3.75107">
        <ele>652.70001220703</ele>
        <time>2012-04-18T16:37:17Z</time>
      </trkpt>
      <trkpt lat="45.38547" lon="3.75101">
        <ele>645.20001220703</ele>
        <time>2012-04-18T16:37:22Z</time>
      </trkpt>
      <trkpt lat="45.38553" lon="3.75098">
        <ele>645.90002441406</ele>
        <time>2012-04-18T16:37:24Z</time>
      </trkpt>
      <trkpt lat="45.38559" lon="3.75092">
        <ele>643.79998779297</ele>
        <time>2012-04-18T16:37:27Z</time>
      </trkpt>
      <trkpt lat="45.38564" lon="3.7509">
        <ele>643.40002441406</ele>
        <time>2012-04-18T16:37:29Z</time>
      </trkpt>
      <trkpt lat="45.38567" lon="3.75084">
        <ele>643.5</ele>
        <time>2012-04-18T16:37:32Z</time>
      </trkpt>
      <trkpt lat="45.38572" lon="3.75078">
        <ele>642.59997558594</ele>
        <time>2012-04-18T16:37:35Z</time>
      </trkpt>
      <trkpt lat="45.38576" lon="3.75074">
        <ele>642.40002441406</ele>
        <time>2012-04-18T16:37:37Z</time>
      </trkpt>
      <trkpt lat="45.3858" lon="3.75069">
        <ele>642.79998779297</ele>
        <time>2012-04-18T16:37:39Z</time>
      </trkpt>
      <trkpt lat="45.38585" lon="3.75064">
        <ele>643.70001220703</ele>
        <time>2012-04-18T16:37:41Z</time>
      </trkpt>
      <trkpt lat="45.38589" lon="3.75059">
        <ele>644</ele>
        <time>2012-04-18T16:37:43Z</time>
      </trkpt>
      <trkpt lat="45.38595" lon="3.75054">
        <ele>643.70001220703</ele>
        <time>2012-04-18T16:37:46Z</time>
      </trkpt>
      <trkpt lat="45.38598" lon="3.75046">
        <ele>642.09997558594</ele>
        <time>2012-04-18T16:37:49Z</time>
      </trkpt>
      <trkpt lat="45.38603" lon="3.75037">
        <ele>645.09997558594</ele>
        <time>2012-04-18T16:37:52Z</time>
      </trkpt>
      <trkpt lat="45.38609" lon="3.75025">
        <ele>639</ele>
        <time>2012-04-18T16:37:58Z</time>
      </trkpt>
      <trkpt lat="45.38612" lon="3.7502">
        <ele>639.09997558594</ele>
        <time>2012-04-18T16:38:00Z</time>
      </trkpt>
      <trkpt lat="45.38617" lon="3.75013">
        <ele>640.29998779297</ele>
        <time>2012-04-18T16:38:03Z</time>
      </trkpt>
      <trkpt lat="45.38621" lon="3.75009">
        <ele>640.59997558594</ele>
        <time>2012-04-18T16:38:05Z</time>
      </trkpt>
      <trkpt lat="45.38625" lon="3.75005">
        <ele>640.40002441406</ele>
        <time>2012-04-18T16:38:07Z</time>
      </trkpt>
      <trkpt lat="45.3863" lon="3.75001">
        <ele>641.09997558594</ele>
        <time>2012-04-18T16:38:09Z</time>
      </trkpt>
      <trkpt lat="45.38636" lon="3.74996">
        <ele>642.09997558594</ele>
        <time>2012-04-18T16:38:12Z</time>
      </trkpt>
      <trkpt lat="45.38641" lon="3.74992">
        <ele>642.79998779297</ele>
        <time>2012-04-18T16:38:14Z</time>
      </trkpt>
      <trkpt lat="45.38645" lon="3.74989">
        <ele>642.29998779297</ele>
        <time>2012-04-18T16:38:16Z</time>
      </trkpt>
      <trkpt lat="45.38651" lon="3.74984">
        <ele>642.70001220703</ele>
        <time>2012-04-18T16:38:19Z</time>
      </trkpt>
      <trkpt lat="45.38656" lon="3.7498">
        <ele>643.40002441406</ele>
        <time>2012-04-18T16:38:22Z</time>
      </trkpt>
      <trkpt lat="45.38662" lon="3.74978">
        <ele>643.5</ele>
        <time>2012-04-18T16:38:25Z</time>
      </trkpt>
      <trkpt lat="45.38667" lon="3.74976">
        <ele>643.40002441406</ele>
        <time>2012-04-18T16:38:27Z</time>
      </trkpt>
      <trkpt lat="45.38671" lon="3.74973">
        <ele>643.79998779297</ele>
        <time>2012-04-18T16:38:29Z</time>
      </trkpt>
      <trkpt lat="45.38685" lon="3.74966">
        <ele>646.09997558594</ele>
        <time>2012-04-18T16:38:34Z</time>
      </trkpt>
      <trkpt lat="45.38691" lon="3.74964">
        <ele>646.20001220703</ele>
        <time>2012-04-18T16:38:37Z</time>
      </trkpt>
      <trkpt lat="45.38696" lon="3.74959">
        <ele>646.70001220703</ele>
        <time>2012-04-18T16:38:40Z</time>
      </trkpt>
      <trkpt lat="45.387" lon="3.74958">
        <ele>647.29998779297</ele>
        <time>2012-04-18T16:38:42Z</time>
      </trkpt>
      <trkpt lat="45.38706" lon="3.74955">
        <ele>647.79998779297</ele>
        <time>2012-04-18T16:38:44Z</time>
      </trkpt>
      <trkpt lat="45.38711" lon="3.74953">
        <ele>647.79998779297</ele>
        <time>2012-04-18T16:38:46Z</time>
      </trkpt>
      <trkpt lat="45.38716" lon="3.7495">
        <ele>647.09997558594</ele>
        <time>2012-04-18T16:38:49Z</time>
      </trkpt>
      <trkpt lat="45.38722" lon="3.74947">
        <ele>647.40002441406</ele>
        <time>2012-04-18T16:38:52Z</time>
      </trkpt>
      <trkpt lat="45.38728" lon="3.74946">
        <ele>648.29998779297</ele>
        <time>2012-04-18T16:38:54Z</time>
      </trkpt>
      <trkpt lat="45.38732" lon="3.74944">
        <ele>649.70001220703</ele>
        <time>2012-04-18T16:38:56Z</time>
      </trkpt>
      <trkpt lat="45.38737" lon="3.74941">
        <ele>649.59997558594</ele>
        <time>2012-04-18T16:38:58Z</time>
      </trkpt>
      <trkpt lat="45.38743" lon="3.74937">
        <ele>648.20001220703</ele>
        <time>2012-04-18T16:39:01Z</time>
      </trkpt>
      <trkpt lat="45.38748" lon="3.74933">
        <ele>649.5</ele>
        <time>2012-04-18T16:39:04Z</time>
      </trkpt>
      <trkpt lat="45.38753" lon="3.74929">
        <ele>648.5</ele>
        <time>2012-04-18T16:39:07Z</time>
      </trkpt>
      <trkpt lat="45.38761" lon="3.74925">
        <ele>648.40002441406</ele>
        <time>2012-04-18T16:39:11Z</time>
      </trkpt>
      <trkpt lat="45.38768" lon="3.74922">
        <ele>648.09997558594</ele>
        <time>2012-04-18T16:39:14Z</time>
      </trkpt>
      <trkpt lat="45.38773" lon="3.7492">
        <ele>648.5</ele>
        <time>2012-04-18T16:39:16Z</time>
      </trkpt>
      <trkpt lat="45.38779" lon="3.74915">
        <ele>647.40002441406</ele>
        <time>2012-04-18T16:39:19Z</time>
      </trkpt>
      <trkpt lat="45.38784" lon="3.74912">
        <ele>648.70001220703</ele>
        <time>2012-04-18T16:39:21Z</time>
      </trkpt>
      <trkpt lat="45.38787" lon="3.74907">
        <ele>649.40002441406</ele>
        <time>2012-04-18T16:39:23Z</time>
      </trkpt>
      <trkpt lat="45.38791" lon="3.74903">
        <ele>649.20001220703</ele>
        <time>2012-04-18T16:39:25Z</time>
      </trkpt>
      <trkpt lat="45.38796" lon="3.74901">
        <ele>649.79998779297</ele>
        <time>2012-04-18T16:39:27Z</time>
      </trkpt>
      <trkpt lat="45.38798" lon="3.74895">
        <ele>649.79998779297</ele>
        <time>2012-04-18T16:39:30Z</time>
      </trkpt>
      <trkpt lat="45.38809" lon="3.74889">
        <ele>648.40002441406</ele>
        <time>2012-04-18T16:39:38Z</time>
      </trkpt>
      <trkpt lat="45.38816" lon="3.7488">
        <ele>647.09997558594</ele>
        <time>2012-04-18T16:39:40Z</time>
      </trkpt>
      <trkpt lat="45.38821" lon="3.74881">
        <ele>648.09997558594</ele>
        <time>2012-04-18T16:39:42Z</time>
      </trkpt>
      <trkpt lat="45.38825" lon="3.7488">
        <ele>646.79998779297</ele>
        <time>2012-04-18T16:39:45Z</time>
      </trkpt>
      <trkpt lat="45.38832" lon="3.74878">
        <ele>647.59997558594</ele>
        <time>2012-04-18T16:39:48Z</time>
      </trkpt>
      <trkpt lat="45.38837" lon="3.7488">
        <ele>646.40002441406</ele>
        <time>2012-04-18T16:39:51Z</time>
      </trkpt>
      <trkpt lat="45.38842" lon="3.7488">
        <ele>645.5</ele>
        <time>2012-04-18T16:39:53Z</time>
      </trkpt>
      <trkpt lat="45.38849" lon="3.7488">
        <ele>647</ele>
        <time>2012-04-18T16:39:56Z</time>
      </trkpt>
      <trkpt lat="45.38855" lon="3.74882">
        <ele>647.79998779297</ele>
        <time>2012-04-18T16:39:58Z</time>
      </trkpt>
      <trkpt lat="45.38861" lon="3.7488">
        <ele>647</ele>
        <time>2012-04-18T16:40:01Z</time>
      </trkpt>
      <trkpt lat="45.38866" lon="3.74882">
        <ele>648</ele>
        <time>2012-04-18T16:40:04Z</time>
      </trkpt>
      <trkpt lat="45.38872" lon="3.74881">
        <ele>648.29998779297</ele>
        <time>2012-04-18T16:40:06Z</time>
      </trkpt>
      <trkpt lat="45.38878" lon="3.74882">
        <ele>649</ele>
        <time>2012-04-18T16:40:09Z</time>
      </trkpt>
      <trkpt lat="45.38883" lon="3.74881">
        <ele>646.70001220703</ele>
        <time>2012-04-18T16:40:12Z</time>
      </trkpt>
      <trkpt lat="45.38896" lon="3.74881">
        <ele>645.09997558594</ele>
        <time>2012-04-18T16:40:17Z</time>
      </trkpt>
      <trkpt lat="45.389" lon="3.74882">
        <ele>644.70001220703</ele>
        <time>2012-04-18T16:40:20Z</time>
      </trkpt>
      <trkpt lat="45.38906" lon="3.74881">
        <ele>643.20001220703</ele>
        <time>2012-04-18T16:40:22Z</time>
      </trkpt>
      <trkpt lat="45.38911" lon="3.74881">
        <ele>644.90002441406</ele>
        <time>2012-04-18T16:40:24Z</time>
      </trkpt>
      <trkpt lat="45.38916" lon="3.7488">
        <ele>646.40002441406</ele>
        <time>2012-04-18T16:40:26Z</time>
      </trkpt>
      <trkpt lat="45.38921" lon="3.74878">
        <ele>643.40002441406</ele>
        <time>2012-04-18T16:40:37Z</time>
      </trkpt>
      <trkpt lat="45.38925" lon="3.74876">
        <ele>643.90002441406</ele>
        <time>2012-04-18T16:40:43Z</time>
      </trkpt>
      <trkpt lat="45.38931" lon="3.74877">
        <ele>644.29998779297</ele>
        <time>2012-04-18T16:40:47Z</time>
      </trkpt>
      <trkpt lat="45.38939" lon="3.74874">
        <ele>644</ele>
        <time>2012-04-18T16:40:51Z</time>
      </trkpt>
      <trkpt lat="45.38945" lon="3.74873">
        <ele>642.5</ele>
        <time>2012-04-18T16:40:56Z</time>
      </trkpt>
      <trkpt lat="45.38952" lon="3.74875">
        <ele>642.5</ele>
        <time>2012-04-18T16:41:01Z</time>
      </trkpt>
      <trkpt lat="45.38959" lon="3.74871">
        <ele>643.79998779297</ele>
        <time>2012-04-18T16:41:06Z</time>
      </trkpt>
      <trkpt lat="45.38964" lon="3.74868">
        <ele>643.70001220703</ele>
        <time>2012-04-18T16:41:11Z</time>
      </trkpt>
      <trkpt lat="45.38969" lon="3.74867">
        <ele>645</ele>
        <time>2012-04-18T16:41:16Z</time>
      </trkpt>
      <trkpt lat="45.38976" lon="3.74869">
        <ele>646</ele>
        <time>2012-04-18T16:41:21Z</time>
      </trkpt>
      <trkpt lat="45.38982" lon="3.74869">
        <ele>644.09997558594</ele>
        <time>2012-04-18T16:41:25Z</time>
      </trkpt>
      <trkpt lat="45.38987" lon="3.7487">
        <ele>644.20001220703</ele>
        <time>2012-04-18T16:41:27Z</time>
      </trkpt>
      <trkpt lat="45.38992" lon="3.74869">
        <ele>643.70001220703</ele>
        <time>2012-04-18T16:41:29Z</time>
      </trkpt>
      <trkpt lat="45.38998" lon="3.74869">
        <ele>642.90002441406</ele>
        <time>2012-04-18T16:41:31Z</time>
      </trkpt>
      <trkpt lat="45.39002" lon="3.74867">
        <ele>640.70001220703</ele>
        <time>2012-04-18T16:41:34Z</time>
      </trkpt>
      <trkpt lat="45.39011" lon="3.74863">
        <ele>638</ele>
        <time>2012-04-18T16:41:37Z</time>
      </trkpt>
      <trkpt lat="45.39022" lon="3.74865">
        <ele>636.40002441406</ele>
        <time>2012-04-18T16:41:42Z</time>
      </trkpt>
      <trkpt lat="45.39029" lon="3.74868">
        <ele>638.90002441406</ele>
        <time>2012-04-18T16:41:45Z</time>
      </trkpt>
      <trkpt lat="45.39034" lon="3.74869">
        <ele>640</ele>
        <time>2012-04-18T16:41:47Z</time>
      </trkpt>
      <trkpt lat="45.39039" lon="3.7487">
        <ele>641.59997558594</ele>
        <time>2012-04-18T16:41:49Z</time>
      </trkpt>
      <trkpt lat="45.39044" lon="3.74871">
        <ele>641.59997558594</ele>
        <time>2012-04-18T16:41:52Z</time>
      </trkpt>
      <trkpt lat="45.39053" lon="3.7487">
        <ele>641.79998779297</ele>
        <time>2012-04-18T16:41:56Z</time>
      </trkpt>
      <trkpt lat="45.39058" lon="3.74872">
        <ele>641.5</ele>
        <time>2012-04-18T16:41:59Z</time>
      </trkpt>
      <trkpt lat="45.39067" lon="3.74877">
        <ele>643.90002441406</ele>
        <time>2012-04-18T16:42:03Z</time>
      </trkpt>
      <trkpt lat="45.39074" lon="3.74879">
        <ele>645.90002441406</ele>
        <time>2012-04-18T16:42:06Z</time>
      </trkpt>
      <trkpt lat="45.39079" lon="3.74879">
        <ele>645.59997558594</ele>
        <time>2012-04-18T16:42:08Z</time>
      </trkpt>
      <trkpt lat="45.39086" lon="3.74879">
        <ele>645.40002441406</ele>
        <time>2012-04-18T16:42:11Z</time>
      </trkpt>
      <trkpt lat="45.39091" lon="3.74878">
        <ele>644.59997558594</ele>
        <time>2012-04-18T16:42:14Z</time>
      </trkpt>
      <trkpt lat="45.39095" lon="3.74876">
        <ele>644.79998779297</ele>
        <time>2012-04-18T16:42:16Z</time>
      </trkpt>
      <trkpt lat="45.391" lon="3.74874">
        <ele>646</ele>
        <time>2012-04-18T16:42:18Z</time>
      </trkpt>
      <trkpt lat="45.39106" lon="3.74874">
        <ele>647.40002441406</ele>
        <time>2012-04-18T16:42:21Z</time>
      </trkpt>
      <trkpt lat="45.39112" lon="3.74872">
        <ele>649.40002441406</ele>
        <time>2012-04-18T16:42:23Z</time>
      </trkpt>
      <trkpt lat="45.39116" lon="3.7487">
        <ele>648.5</ele>
        <time>2012-04-18T16:42:25Z</time>
      </trkpt>
      <trkpt lat="45.39123" lon="3.74867">
        <ele>647.5</ele>
        <time>2012-04-18T16:42:29Z</time>
      </trkpt>
      <trkpt lat="45.39128" lon="3.74865">
        <ele>648.40002441406</ele>
        <time>2012-04-18T16:42:31Z</time>
      </trkpt>
      <trkpt lat="45.39134" lon="3.74863">
        <ele>647.79998779297</ele>
        <time>2012-04-18T16:42:34Z</time>
      </trkpt>
      <trkpt lat="45.39139" lon="3.7486">
        <ele>647.09997558594</ele>
        <time>2012-04-18T16:42:37Z</time>
      </trkpt>
      <trkpt lat="45.39145" lon="3.74857">
        <ele>646.90002441406</ele>
        <time>2012-04-18T16:42:40Z</time>
      </trkpt>
      <trkpt lat="45.39151" lon="3.74854">
        <ele>646.29998779297</ele>
        <time>2012-04-18T16:42:43Z</time>
      </trkpt>
      <trkpt lat="45.39156" lon="3.74855">
        <ele>646</ele>
        <time>2012-04-18T16:42:45Z</time>
      </trkpt>
      <trkpt lat="45.39162" lon="3.74856">
        <ele>645.79998779297</ele>
        <time>2012-04-18T16:42:49Z</time>
      </trkpt>
      <trkpt lat="45.39168" lon="3.74858">
        <ele>645.59997558594</ele>
        <time>2012-04-18T16:42:52Z</time>
      </trkpt>
      <trkpt lat="45.39183" lon="3.74871">
        <ele>645.20001220703</ele>
        <time>2012-04-18T16:43:00Z</time>
      </trkpt>
      <trkpt lat="45.39186" lon="3.74875">
        <ele>642.90002441406</ele>
        <time>2012-04-18T16:43:03Z</time>
      </trkpt>
      <trkpt lat="45.39189" lon="3.74882">
        <ele>641.70001220703</ele>
        <time>2012-04-18T16:43:06Z</time>
      </trkpt>
      <trkpt lat="45.39194" lon="3.74894">
        <ele>642.59997558594</ele>
        <time>2012-04-18T16:43:10Z</time>
      </trkpt>
      <trkpt lat="45.39195" lon="3.74901">
        <ele>641.5</ele>
        <time>2012-04-18T16:43:12Z</time>
      </trkpt>
      <trkpt lat="45.39196" lon="3.74911">
        <ele>642.20001220703</ele>
        <time>2012-04-18T16:43:15Z</time>
      </trkpt>
      <trkpt lat="45.39195" lon="3.7492">
        <ele>642.40002441406</ele>
        <time>2012-04-18T16:43:18Z</time>
      </trkpt>
      <trkpt lat="45.39193" lon="3.74928">
        <ele>642.70001220703</ele>
        <time>2012-04-18T16:43:20Z</time>
      </trkpt>
      <trkpt lat="45.3919" lon="3.74934">
        <ele>642.5</ele>
        <time>2012-04-18T16:43:22Z</time>
      </trkpt>
      <trkpt lat="45.39186" lon="3.7494">
        <ele>642.40002441406</ele>
        <time>2012-04-18T16:43:25Z</time>
      </trkpt>
      <trkpt lat="45.39183" lon="3.74946">
        <ele>642.09997558594</ele>
        <time>2012-04-18T16:43:28Z</time>
      </trkpt>
      <trkpt lat="45.39179" lon="3.74952">
        <ele>642.29998779297</ele>
        <time>2012-04-18T16:43:31Z</time>
      </trkpt>
      <trkpt lat="45.39175" lon="3.74959">
        <ele>642.70001220703</ele>
        <time>2012-04-18T16:43:34Z</time>
      </trkpt>
      <trkpt lat="45.39172" lon="3.74967">
        <ele>646</ele>
        <time>2012-04-18T16:43:37Z</time>
      </trkpt>
      <trkpt lat="45.39169" lon="3.74974">
        <ele>645.29998779297</ele>
        <time>2012-04-18T16:43:40Z</time>
      </trkpt>
      <trkpt lat="45.39164" lon="3.74987">
        <ele>645.79998779297</ele>
        <time>2012-04-18T16:43:45Z</time>
      </trkpt>
      <trkpt lat="45.39161" lon="3.74993">
        <ele>646.59997558594</ele>
        <time>2012-04-18T16:43:47Z</time>
      </trkpt>
      <trkpt lat="45.39158" lon="3.74999">
        <ele>646</ele>
        <time>2012-04-18T16:43:49Z</time>
      </trkpt>
      <trkpt lat="45.39156" lon="3.75007">
        <ele>646.70001220703</ele>
        <time>2012-04-18T16:43:52Z</time>
      </trkpt>
      <trkpt lat="45.39153" lon="3.75012">
        <ele>646.70001220703</ele>
        <time>2012-04-18T16:43:54Z</time>
      </trkpt>
      <trkpt lat="45.39151" lon="3.75018">
        <ele>647.29998779297</ele>
        <time>2012-04-18T16:43:56Z</time>
      </trkpt>
      <trkpt lat="45.39148" lon="3.75024">
        <ele>646.70001220703</ele>
        <time>2012-04-18T16:43:58Z</time>
      </trkpt>
      <trkpt lat="45.39143" lon="3.75032">
        <ele>648.40002441406</ele>
        <time>2012-04-18T16:44:01Z</time>
      </trkpt>
      <trkpt lat="45.39137" lon="3.7505">
        <ele>647.70001220703</ele>
        <time>2012-04-18T16:44:07Z</time>
      </trkpt>
      <trkpt lat="45.39135" lon="3.7506">
        <ele>648</ele>
        <time>2012-04-18T16:44:10Z</time>
      </trkpt>
      <trkpt lat="45.39132" lon="3.75068">
        <ele>648.59997558594</ele>
        <time>2012-04-18T16:44:13Z</time>
      </trkpt>
      <trkpt lat="45.3913" lon="3.75074">
        <ele>649.40002441406</ele>
        <time>2012-04-18T16:44:15Z</time>
      </trkpt>
      <trkpt lat="45.39127" lon="3.7508">
        <ele>650.90002441406</ele>
        <time>2012-04-18T16:44:17Z</time>
      </trkpt>
      <trkpt lat="45.39123" lon="3.75088">
        <ele>649.79998779297</ele>
        <time>2012-04-18T16:44:21Z</time>
      </trkpt>
      <trkpt lat="45.39121" lon="3.75099">
        <ele>649.59997558594</ele>
        <time>2012-04-18T16:44:25Z</time>
      </trkpt>
      <trkpt lat="45.39117" lon="3.75103">
        <ele>649.79998779297</ele>
        <time>2012-04-18T16:44:28Z</time>
      </trkpt>
      <trkpt lat="45.39114" lon="3.7511">
        <ele>648.90002441406</ele>
        <time>2012-04-18T16:44:31Z</time>
      </trkpt>
      <trkpt lat="45.39111" lon="3.75117">
        <ele>648.5</ele>
        <time>2012-04-18T16:44:35Z</time>
      </trkpt>
      <trkpt lat="45.39108" lon="3.75123">
        <ele>648.70001220703</ele>
        <time>2012-04-18T16:44:39Z</time>
      </trkpt>
      <trkpt lat="45.39105" lon="3.75129">
        <ele>648.70001220703</ele>
        <time>2012-04-18T16:44:41Z</time>
      </trkpt>
      <trkpt lat="45.39103" lon="3.75136">
        <ele>648.70001220703</ele>
        <time>2012-04-18T16:44:44Z</time>
      </trkpt>
      <trkpt lat="45.39101" lon="3.75143">
        <ele>649.70001220703</ele>
        <time>2012-04-18T16:44:46Z</time>
      </trkpt>
      <trkpt lat="45.39095" lon="3.75154">
        <ele>648.09997558594</ele>
        <time>2012-04-18T16:44:51Z</time>
      </trkpt>
      <trkpt lat="45.39092" lon="3.75161">
        <ele>647.59997558594</ele>
        <time>2012-04-18T16:44:54Z</time>
      </trkpt>
      <trkpt lat="45.39088" lon="3.75169">
        <ele>648.59997558594</ele>
        <time>2012-04-18T16:44:57Z</time>
      </trkpt>
      <trkpt lat="45.39086" lon="3.75174">
        <ele>648.70001220703</ele>
        <time>2012-04-18T16:44:59Z</time>
      </trkpt>
      <trkpt lat="45.39084" lon="3.75182">
        <ele>649.5</ele>
        <time>2012-04-18T16:45:02Z</time>
      </trkpt>
      <trkpt lat="45.39082" lon="3.75188">
        <ele>650.70001220703</ele>
        <time>2012-04-18T16:45:05Z</time>
      </trkpt>
      <trkpt lat="45.3908" lon="3.75199">
        <ele>651.09997558594</ele>
        <time>2012-04-18T16:45:08Z</time>
      </trkpt>
      <trkpt lat="45.39076" lon="3.75206">
        <ele>650.70001220703</ele>
        <time>2012-04-18T16:45:10Z</time>
      </trkpt>
      <trkpt lat="45.39074" lon="3.75211">
        <ele>651</ele>
        <time>2012-04-18T16:45:12Z</time>
      </trkpt>
      <trkpt lat="45.39072" lon="3.7522">
        <ele>650.09997558594</ele>
        <time>2012-04-18T16:45:16Z</time>
      </trkpt>
      <trkpt lat="45.3907" lon="3.75226">
        <ele>648.40002441406</ele>
        <time>2012-04-18T16:45:19Z</time>
      </trkpt>
      <trkpt lat="45.39066" lon="3.75233">
        <ele>649.40002441406</ele>
        <time>2012-04-18T16:45:23Z</time>
      </trkpt>
      <trkpt lat="45.39063" lon="3.75238">
        <ele>650.09997558594</ele>
        <time>2012-04-18T16:45:26Z</time>
      </trkpt>
      <trkpt lat="45.39058" lon="3.75246">
        <ele>647.79998779297</ele>
        <time>2012-04-18T16:45:30Z</time>
      </trkpt>
      <trkpt lat="45.39052" lon="3.75254">
        <ele>646.90002441406</ele>
        <time>2012-04-18T16:45:34Z</time>
      </trkpt>
      <trkpt lat="45.39048" lon="3.75258">
        <ele>647.40002441406</ele>
        <time>2012-04-18T16:45:37Z</time>
      </trkpt>
      <trkpt lat="45.39045" lon="3.75263">
        <ele>646.20001220703</ele>
        <time>2012-04-18T16:45:40Z</time>
      </trkpt>
      <trkpt lat="45.39041" lon="3.75267">
        <ele>647.09997558594</ele>
        <time>2012-04-18T16:45:43Z</time>
      </trkpt>
      <trkpt lat="45.39036" lon="3.75271">
        <ele>647.79998779297</ele>
        <time>2012-04-18T16:45:46Z</time>
      </trkpt>
      <trkpt lat="45.39032" lon="3.75276">
        <ele>648.5</ele>
        <time>2012-04-18T16:45:49Z</time>
      </trkpt>
      <trkpt lat="45.39027" lon="3.75281">
        <ele>649.59997558594</ele>
        <time>2012-04-18T16:45:52Z</time>
      </trkpt>
      <trkpt lat="45.39023" lon="3.75286">
        <ele>648.90002441406</ele>
        <time>2012-04-18T16:45:55Z</time>
      </trkpt>
      <trkpt lat="45.39019" lon="3.7529">
        <ele>649.5</ele>
        <time>2012-04-18T16:45:58Z</time>
      </trkpt>
      <trkpt lat="45.39015" lon="3.75295">
        <ele>648.29998779297</ele>
        <time>2012-04-18T16:46:01Z</time>
      </trkpt>
      <trkpt lat="45.3901" lon="3.75299">
        <ele>648.70001220703</ele>
        <time>2012-04-18T16:46:04Z</time>
      </trkpt>
      <trkpt lat="45.39005" lon="3.75303">
        <ele>649</ele>
        <time>2012-04-18T16:46:06Z</time>
      </trkpt>
      <trkpt lat="45.39001" lon="3.75307">
        <ele>648.70001220703</ele>
        <time>2012-04-18T16:46:09Z</time>
      </trkpt>
      <trkpt lat="45.38996" lon="3.75311">
        <ele>648.70001220703</ele>
        <time>2012-04-18T16:46:12Z</time>
      </trkpt>
      <trkpt lat="45.38991" lon="3.75317">
        <ele>649.29998779297</ele>
        <time>2012-04-18T16:46:15Z</time>
      </trkpt>
      <trkpt lat="45.38987" lon="3.75322">
        <ele>650.40002441406</ele>
        <time>2012-04-18T16:46:18Z</time>
      </trkpt>
      <trkpt lat="45.38982" lon="3.75326">
        <ele>650.70001220703</ele>
        <time>2012-04-18T16:46:21Z</time>
      </trkpt>
      <trkpt lat="45.38977" lon="3.7533">
        <ele>650</ele>
        <time>2012-04-18T16:46:24Z</time>
      </trkpt>
      <trkpt lat="45.38972" lon="3.75333">
        <ele>649.5</ele>
        <time>2012-04-18T16:46:27Z</time>
      </trkpt>
      <trkpt lat="45.38968" lon="3.75337">
        <ele>648.59997558594</ele>
        <time>2012-04-18T16:46:31Z</time>
      </trkpt>
      <trkpt lat="45.38965" lon="3.75341">
        <ele>647.90002441406</ele>
        <time>2012-04-18T16:46:40Z</time>
      </trkpt>
      <trkpt lat="45.3896" lon="3.75344">
        <ele>649.20001220703</ele>
        <time>2012-04-18T16:46:43Z</time>
      </trkpt>
      <trkpt lat="45.38957" lon="3.75349">
        <ele>650.09997558594</ele>
        <time>2012-04-18T16:46:50Z</time>
      </trkpt>
      <trkpt lat="45.38953" lon="3.75354">
        <ele>649.40002441406</ele>
        <time>2012-04-18T16:46:54Z</time>
      </trkpt>
      <trkpt lat="45.38946" lon="3.75359">
        <ele>650</ele>
        <time>2012-04-18T16:47:01Z</time>
      </trkpt>
      <trkpt lat="45.38941" lon="3.75361">
        <ele>649.5</ele>
        <time>2012-04-18T16:47:06Z</time>
      </trkpt>
      <trkpt lat="45.38937" lon="3.75359">
        <ele>649.59997558594</ele>
        <time>2012-04-18T16:47:09Z</time>
      </trkpt>
      <trkpt lat="45.38932" lon="3.75361">
        <ele>651.29998779297</ele>
        <time>2012-04-18T16:47:13Z</time>
      </trkpt>
      <trkpt lat="45.38926" lon="3.7536">
        <ele>652.90002441406</ele>
        <time>2012-04-18T16:47:17Z</time>
      </trkpt>
      <trkpt lat="45.3892" lon="3.75356">
        <ele>654.40002441406</ele>
        <time>2012-04-18T16:47:20Z</time>
      </trkpt>
      <trkpt lat="45.38915" lon="3.75355">
        <ele>654</ele>
        <time>2012-04-18T16:47:23Z</time>
      </trkpt>
      <trkpt lat="45.38905" lon="3.75354">
        <ele>655.20001220703</ele>
        <time>2012-04-18T16:47:29Z</time>
      </trkpt>
      <trkpt lat="45.389" lon="3.75351">
        <ele>656.09997558594</ele>
        <time>2012-04-18T16:47:31Z</time>
      </trkpt>
      <trkpt lat="45.38894" lon="3.7535">
        <ele>657.29998779297</ele>
        <time>2012-04-18T16:47:34Z</time>
      </trkpt>
      <trkpt lat="45.38881" lon="3.75347">
        <ele>657.79998779297</ele>
        <time>2012-04-18T16:47:40Z</time>
      </trkpt>
      <trkpt lat="45.38875" lon="3.7535">
        <ele>658.70001220703</ele>
        <time>2012-04-18T16:47:43Z</time>
      </trkpt>
      <trkpt lat="45.38869" lon="3.75349">
        <ele>659.09997558594</ele>
        <time>2012-04-18T16:47:46Z</time>
      </trkpt>
      <trkpt lat="45.38864" lon="3.75346">
        <ele>659.59997558594</ele>
        <time>2012-04-18T16:47:49Z</time>
      </trkpt>
      <trkpt lat="45.38858" lon="3.75347">
        <ele>660.59997558594</ele>
        <time>2012-04-18T16:47:52Z</time>
      </trkpt>
      <trkpt lat="45.38854" lon="3.75342">
        <ele>661</ele>
        <time>2012-04-18T16:47:55Z</time>
      </trkpt>
      <trkpt lat="45.3885" lon="3.75341">
        <ele>660.59997558594</ele>
        <time>2012-04-18T16:47:58Z</time>
      </trkpt>
      <trkpt lat="45.38843" lon="3.75339">
        <ele>661.40002441406</ele>
        <time>2012-04-18T16:48:01Z</time>
      </trkpt>
      <trkpt lat="45.38838" lon="3.75334">
        <ele>661.20001220703</ele>
        <time>2012-04-18T16:48:05Z</time>
      </trkpt>
      <trkpt lat="45.38832" lon="3.75335">
        <ele>660.29998779297</ele>
        <time>2012-04-18T16:48:08Z</time>
      </trkpt>
      <trkpt lat="45.38825" lon="3.75334">
        <ele>660.5</ele>
        <time>2012-04-18T16:48:12Z</time>
      </trkpt>
      <trkpt lat="45.3882" lon="3.75337">
        <ele>661.29998779297</ele>
        <time>2012-04-18T16:48:14Z</time>
      </trkpt>
      <trkpt lat="45.38817" lon="3.75333">
        <ele>661.5</ele>
        <time>2012-04-18T16:48:16Z</time>
      </trkpt>
      <trkpt lat="45.38811" lon="3.75334">
        <ele>662.20001220703</ele>
        <time>2012-04-18T16:48:18Z</time>
      </trkpt>
      <trkpt lat="45.38805" lon="3.75333">
        <ele>663.5</ele>
        <time>2012-04-18T16:48:21Z</time>
      </trkpt>
      <trkpt lat="45.38799" lon="3.75333">
        <ele>662.5</ele>
        <time>2012-04-18T16:48:23Z</time>
      </trkpt>
      <trkpt lat="45.38794" lon="3.7533">
        <ele>660.70001220703</ele>
        <time>2012-04-18T16:48:26Z</time>
      </trkpt>
      <trkpt lat="45.38787" lon="3.75328">
        <ele>661.59997558594</ele>
        <time>2012-04-18T16:48:29Z</time>
      </trkpt>
      <trkpt lat="45.38776" lon="3.75324">
        <ele>661.79998779297</ele>
        <time>2012-04-18T16:48:35Z</time>
      </trkpt>
      <trkpt lat="45.38771" lon="3.75324">
        <ele>660.09997558594</ele>
        <time>2012-04-18T16:48:38Z</time>
      </trkpt>
      <trkpt lat="45.38766" lon="3.75323">
        <ele>661.90002441406</ele>
        <time>2012-04-18T16:48:42Z</time>
      </trkpt>
      <trkpt lat="45.3876" lon="3.75323">
        <ele>660.29998779297</ele>
        <time>2012-04-18T16:48:44Z</time>
      </trkpt>
      <trkpt lat="45.38754" lon="3.75323">
        <ele>659.70001220703</ele>
        <time>2012-04-18T16:48:47Z</time>
      </trkpt>
      <trkpt lat="45.3875" lon="3.75322">
        <ele>658.79998779297</ele>
        <time>2012-04-18T16:48:49Z</time>
      </trkpt>
      <trkpt lat="45.38745" lon="3.75319">
        <ele>655.79998779297</ele>
        <time>2012-04-18T16:48:51Z</time>
      </trkpt>
      <trkpt lat="45.38739" lon="3.75318">
        <ele>656.29998779297</ele>
        <time>2012-04-18T16:48:54Z</time>
      </trkpt>
      <trkpt lat="45.38732" lon="3.75321">
        <ele>657.70001220703</ele>
        <time>2012-04-18T16:48:57Z</time>
      </trkpt>
      <trkpt lat="45.38728" lon="3.75324">
        <ele>656.90002441406</ele>
        <time>2012-04-18T16:48:59Z</time>
      </trkpt>
      <trkpt lat="45.38723" lon="3.7533">
        <ele>656.09997558594</ele>
        <time>2012-04-18T16:49:02Z</time>
      </trkpt>
      <trkpt lat="45.38712" lon="3.75342">
        <ele>655.20001220703</ele>
        <time>2012-04-18T16:49:08Z</time>
      </trkpt>
      <trkpt lat="45.38709" lon="3.75346">
        <ele>655</ele>
        <time>2012-04-18T16:49:10Z</time>
      </trkpt>
      <trkpt lat="45.38704" lon="3.75351">
        <ele>654.20001220703</ele>
        <time>2012-04-18T16:49:13Z</time>
      </trkpt>
      <trkpt lat="45.387" lon="3.75357">
        <ele>654.40002441406</ele>
        <time>2012-04-18T16:49:16Z</time>
      </trkpt>
      <trkpt lat="45.38698" lon="3.75363">
        <ele>655.70001220703</ele>
        <time>2012-04-18T16:49:18Z</time>
      </trkpt>
      <trkpt lat="45.38693" lon="3.75369">
        <ele>656</ele>
        <time>2012-04-18T16:49:21Z</time>
      </trkpt>
      <trkpt lat="45.38689" lon="3.75377">
        <ele>656.09997558594</ele>
        <time>2012-04-18T16:49:24Z</time>
      </trkpt>
      <trkpt lat="45.38685" lon="3.75381">
        <ele>658.09997558594</ele>
        <time>2012-04-18T16:49:27Z</time>
      </trkpt>
      <trkpt lat="45.38683" lon="3.75387">
        <ele>658.09997558594</ele>
        <time>2012-04-18T16:49:29Z</time>
      </trkpt>
      <trkpt lat="45.38679" lon="3.75392">
        <ele>658</ele>
        <time>2012-04-18T16:49:32Z</time>
      </trkpt>
      <trkpt lat="45.38676" lon="3.75398">
        <ele>658.59997558594</ele>
        <time>2012-04-18T16:49:35Z</time>
      </trkpt>
      <trkpt lat="45.38667" lon="3.75406">
        <ele>658.20001220703</ele>
        <time>2012-04-18T16:49:40Z</time>
      </trkpt>
      <trkpt lat="45.38663" lon="3.75414">
        <ele>658.29998779297</ele>
        <time>2012-04-18T16:49:43Z</time>
      </trkpt>
      <trkpt lat="45.3866" lon="3.75422">
        <ele>658.20001220703</ele>
        <time>2012-04-18T16:49:46Z</time>
      </trkpt>
      <trkpt lat="45.38657" lon="3.75431">
        <ele>656.79998779297</ele>
        <time>2012-04-18T16:49:49Z</time>
      </trkpt>
      <trkpt lat="45.38653" lon="3.75437">
        <ele>655.20001220703</ele>
        <time>2012-04-18T16:49:52Z</time>
      </trkpt>
      <trkpt lat="45.38649" lon="3.75444">
        <ele>655.09997558594</ele>
        <time>2012-04-18T16:49:55Z</time>
      </trkpt>
      <trkpt lat="45.38646" lon="3.7545">
        <ele>657.20001220703</ele>
        <time>2012-04-18T16:49:58Z</time>
      </trkpt>
      <trkpt lat="45.38642" lon="3.75458">
        <ele>658.59997558594</ele>
        <time>2012-04-18T16:50:01Z</time>
      </trkpt>
      <trkpt lat="45.38632" lon="3.75475">
        <ele>659.29998779297</ele>
        <time>2012-04-18T16:50:07Z</time>
      </trkpt>
      <trkpt lat="45.3862" lon="3.75496">
        <ele>660.79998779297</ele>
        <time>2012-04-18T16:50:17Z</time>
      </trkpt>
      <trkpt lat="45.38617" lon="3.75501">
        <ele>660.40002441406</ele>
        <time>2012-04-18T16:50:19Z</time>
      </trkpt>
      <trkpt lat="45.38611" lon="3.75504">
        <ele>659</ele>
        <time>2012-04-18T16:50:22Z</time>
      </trkpt>
      <trkpt lat="45.38606" lon="3.75508">
        <ele>658.40002441406</ele>
        <time>2012-04-18T16:50:25Z</time>
      </trkpt>
      <trkpt lat="45.38603" lon="3.75514">
        <ele>658.40002441406</ele>
        <time>2012-04-18T16:50:27Z</time>
      </trkpt>
      <trkpt lat="45.38598" lon="3.75516">
        <ele>659.29998779297</ele>
        <time>2012-04-18T16:50:29Z</time>
      </trkpt>
      <trkpt lat="45.38595" lon="3.75519">
        <ele>657.59997558594</ele>
        <time>2012-04-18T16:50:31Z</time>
      </trkpt>
      <trkpt lat="45.38589" lon="3.7552">
        <ele>656.79998779297</ele>
        <time>2012-04-18T16:50:34Z</time>
      </trkpt>
      <trkpt lat="45.38584" lon="3.75521">
        <ele>655.90002441406</ele>
        <time>2012-04-18T16:50:37Z</time>
      </trkpt>
      <trkpt lat="45.38579" lon="3.7552">
        <ele>655.29998779297</ele>
        <time>2012-04-18T16:50:40Z</time>
      </trkpt>
      <trkpt lat="45.38573" lon="3.75521">
        <ele>654.5</ele>
        <time>2012-04-18T16:50:43Z</time>
      </trkpt>
      <trkpt lat="45.38567" lon="3.75521">
        <ele>654.09997558594</ele>
        <time>2012-04-18T16:50:46Z</time>
      </trkpt>
      <trkpt lat="45.38561" lon="3.75521">
        <ele>654.90002441406</ele>
        <time>2012-04-18T16:50:49Z</time>
      </trkpt>
      <trkpt lat="45.38556" lon="3.75521">
        <ele>654.29998779297</ele>
        <time>2012-04-18T16:50:51Z</time>
      </trkpt>
      <trkpt lat="45.38549" lon="3.75524">
        <ele>652.5</ele>
        <time>2012-04-18T16:50:55Z</time>
      </trkpt>
      <trkpt lat="45.38543" lon="3.75525">
        <ele>651.79998779297</ele>
        <time>2012-04-18T16:50:58Z</time>
      </trkpt>
      <trkpt lat="45.38538" lon="3.75527">
        <ele>649.70001220703</ele>
        <time>2012-04-18T16:51:00Z</time>
      </trkpt>
      <trkpt lat="45.38533" lon="3.75528">
        <ele>651.70001220703</ele>
        <time>2012-04-18T16:51:03Z</time>
      </trkpt>
      <trkpt lat="45.38521" lon="3.7553">
        <ele>654.29998779297</ele>
        <time>2012-04-18T16:51:09Z</time>
      </trkpt>
      <trkpt lat="45.38515" lon="3.75534">
        <ele>652.79998779297</ele>
        <time>2012-04-18T16:51:12Z</time>
      </trkpt>
      <trkpt lat="45.3851" lon="3.75534">
        <ele>652.29998779297</ele>
        <time>2012-04-18T16:51:15Z</time>
      </trkpt>
      <trkpt lat="45.38504" lon="3.75537">
        <ele>652.5</ele>
        <time>2012-04-18T16:51:18Z</time>
      </trkpt>
      <trkpt lat="45.38498" lon="3.75536">
        <ele>652.70001220703</ele>
        <time>2012-04-18T16:51:21Z</time>
      </trkpt>
      <trkpt lat="45.38495" lon="3.75527">
        <ele>654.90002441406</ele>
        <time>2012-04-18T16:51:25Z</time>
      </trkpt>
      <trkpt lat="45.38493" lon="3.7552">
        <ele>655.79998779297</ele>
        <time>2012-04-18T16:51:28Z</time>
      </trkpt>
      <trkpt lat="45.38488" lon="3.75513">
        <ele>654.09997558594</ele>
        <time>2012-04-18T16:51:34Z</time>
      </trkpt>
      <trkpt lat="45.38486" lon="3.75506">
        <ele>655.09997558594</ele>
        <time>2012-04-18T16:51:37Z</time>
      </trkpt>
      <trkpt lat="45.38483" lon="3.75496">
        <ele>656.70001220703</ele>
        <time>2012-04-18T16:51:40Z</time>
      </trkpt>
      <trkpt lat="45.38481" lon="3.75489">
        <ele>656.79998779297</ele>
        <time>2012-04-18T16:51:42Z</time>
      </trkpt>
      <trkpt lat="45.38478" lon="3.75482">
        <ele>657.5</ele>
        <time>2012-04-18T16:51:45Z</time>
      </trkpt>
      <trkpt lat="45.38476" lon="3.75476">
        <ele>658.5</ele>
        <time>2012-04-18T16:51:47Z</time>
      </trkpt>
      <trkpt lat="45.38474" lon="3.75469">
        <ele>658.70001220703</ele>
        <time>2012-04-18T16:51:49Z</time>
      </trkpt>
      <trkpt lat="45.38473" lon="3.75462">
        <ele>657.40002441406</ele>
        <time>2012-04-18T16:51:53Z</time>
      </trkpt>
      <trkpt lat="45.38471" lon="3.75455">
        <ele>657.20001220703</ele>
        <time>2012-04-18T16:51:56Z</time>
      </trkpt>
      <trkpt lat="45.38469" lon="3.75449">
        <ele>657.5</ele>
        <time>2012-04-18T16:51:59Z</time>
      </trkpt>
      <trkpt lat="45.38467" lon="3.75443">
        <ele>656.90002441406</ele>
        <time>2012-04-18T16:52:02Z</time>
      </trkpt>
      <trkpt lat="45.38465" lon="3.75437">
        <ele>657.5</ele>
        <time>2012-04-18T16:52:04Z</time>
      </trkpt>
      <trkpt lat="45.38463" lon="3.7543">
        <ele>658.79998779297</ele>
        <time>2012-04-18T16:52:07Z</time>
      </trkpt>
      <trkpt lat="45.3846" lon="3.75422">
        <ele>659.79998779297</ele>
        <time>2012-04-18T16:52:10Z</time>
      </trkpt>
      <trkpt lat="45.38458" lon="3.75414">
        <ele>659</ele>
        <time>2012-04-18T16:52:13Z</time>
      </trkpt>
      <trkpt lat="45.38457" lon="3.75407">
        <ele>659.5</ele>
        <time>2012-04-18T16:52:16Z</time>
      </trkpt>
      <trkpt lat="45.38455" lon="3.75399">
        <ele>659.90002441406</ele>
        <time>2012-04-18T16:52:19Z</time>
      </trkpt>
      <trkpt lat="45.38452" lon="3.75393">
        <ele>658.59997558594</ele>
        <time>2012-04-18T16:52:22Z</time>
      </trkpt>
      <trkpt lat="45.3845" lon="3.75386">
        <ele>658.20001220703</ele>
        <time>2012-04-18T16:52:25Z</time>
      </trkpt>
      <trkpt lat="45.38448" lon="3.75378">
        <ele>658.5</ele>
        <time>2012-04-18T16:52:28Z</time>
      </trkpt>
      <trkpt lat="45.38445" lon="3.75372">
        <ele>657.90002441406</ele>
        <time>2012-04-18T16:52:31Z</time>
      </trkpt>
      <trkpt lat="45.38444" lon="3.75365">
        <ele>657.90002441406</ele>
        <time>2012-04-18T16:52:33Z</time>
      </trkpt>
      <trkpt lat="45.38442" lon="3.75356">
        <ele>659.79998779297</ele>
        <time>2012-04-18T16:52:36Z</time>
      </trkpt>
      <trkpt lat="45.38439" lon="3.75348">
        <ele>659.59997558594</ele>
        <time>2012-04-18T16:52:39Z</time>
      </trkpt>
      <trkpt lat="45.38436" lon="3.75338">
        <ele>660.70001220703</ele>
        <time>2012-04-18T16:52:43Z</time>
      </trkpt>
      <trkpt lat="45.38434" lon="3.75331">
        <ele>660.70001220703</ele>
        <time>2012-04-18T16:52:46Z</time>
      </trkpt>
      <trkpt lat="45.38431" lon="3.7532">
        <ele>660.79998779297</ele>
        <time>2012-04-18T16:52:50Z</time>
      </trkpt>
      <trkpt lat="45.38428" lon="3.75307">
        <ele>662.70001220703</ele>
        <time>2012-04-18T16:52:54Z</time>
      </trkpt>
      <trkpt lat="45.38422" lon="3.75284">
        <ele>660.5</ele>
        <time>2012-04-18T16:53:00Z</time>
      </trkpt>
      <trkpt lat="45.38421" lon="3.75275">
        <ele>661.20001220703</ele>
        <time>2012-04-18T16:53:03Z</time>
      </trkpt>
      <trkpt lat="45.3842" lon="3.75268">
        <ele>663.40002441406</ele>
        <time>2012-04-18T16:53:05Z</time>
      </trkpt>
      <trkpt lat="45.38418" lon="3.7526">
        <ele>664.09997558594</ele>
        <time>2012-04-18T16:53:08Z</time>
      </trkpt>
    </trkseg>
  </trk>
</gpx>